Tiempo atmosférico en la estación meteorológica de Soba, Alto Miera, Cantabria (695 m.)



Fecha
DESCASC
Temp. máxima en grados centígrados (hora)
DESCASC
Temp. mínima en grados centígrados (hora)
DESCASC
Temp. media en grados centígrados
DESCASC
Racha de viento máxima en m/sg (hora)
DESCASC
Velocidad máxima media en intervalos de 10 minutos(hora)
DESCASC
Precipitaciones diarias en mm
DESCASC
Precipitaciones de 00:00 a 06:00 en mm
DESCASC
Precipitaciones de 06:00 a 12:00 en mm
DESCASC
Precipitaciones de 12:00 a 18:00 en mm
DESCASC
Precipitaciones de 18:00 a 24:00 en mm
DESCASC
22-01-2020 5.9 (13:30) 3 (22:10) 4.5 11.39 (04:50) 5.83 (00:40) 0.2 0.2 0 0 0
21-01-2020 4.9 (23:50) 1.8 (06:00) 3.4 -- (--) -- (--) 1 0.2 0.6 0.2 0
20-01-2020 2.3 (23:50) 0.5 (06:20) 1.4 -- (--) -- (--) -- 0 -- 1.8 0.6
19-01-2020 5.1 (02:30) 1.7 (00:00) 3.4 15 (21:20) 7.78 (22:10) 22.4 17.2 5 0 0.2
18-01-2020 12.2 (16:20) 3 (00:00) 7.6 17.22 (16:40) 6.39 (16:50) 15 0 0 9.4 5.6
17-01-2020 10.3 (00:10) 2.9 (00:00) 6.6 18.06 (00:30) 8.33 (00:30) 8.8 0 8.8 0 0
16-01-2020 13.8 (15:40) 9.6 (00:00) 11.7 -- (--) -- (--) -- 0 0 0 --
15-01-2020 12.2 (13:30) 9 (00:00) 10.6 -- (--) -- (--) -- -- 0 0 0
14-01-2020 -- (--) -- (--) -- -- (--) -- (--) -- -- -- 0 0
13-01-2020 14.5 (15:00) 4.8 (00:00) 9.7 13.61 (16:00) 5.83 (23:20) 0 0 0 0 0
12-01-2020 -- (--) -- (--) -- -- (--) -- (--) -- -- -- 0 0
11-01-2020 12.4 (15:40) 1.4 (00:00) 6.9 4.17 (23:20) 2.22 (18:00) 0 0 0 0 0
10-01-2020 6.1 (00:10) 2.1 (00:00) 4.1 12.22 (04:20) 5.28 (02:50) 15.6 0.8 2.2 11.4 1.2
09-01-2020 16.4 (13:10) 6 (00:00) 11.2 13.06 (16:00) 8.33 (16:00) 8 0 0 4.2 3.8
08-01-2020 15.2 (15:40) 7.9 (00:00) 11.5 3.89 (04:10) 2.22 (01:20) 0 0 0 0 0
07-01-2020 15.3 (15:50) 5 (00:00) 10.2 4.17 (05:30) 2.78 (19:50) 0 0 0 0 0
06-01-2020 14.8 (12:30) 3.1 (00:00) 9 6.11 (19:10) 3.61 (08:10) 0 0 0 0 0
05-01-2020 12.6 (15:40) 1.4 (00:00) 7 -- (--) -- (--) -- 0 -- 0 0
04-01-2020 7.5 (14:40) 2.2 (00:00) 4.9 5.83 (13:40) 3.61 (13:40) 1.2 0 1.2 0 0
03-01-2020 8.5 (07:00) 3.1 (00:00) 5.8 5.28 (18:00) 2.78 (18:20) 10.8 0 1.6 5.2 4
02-01-2020 15.8 (13:00) 3.7 (00:00) 9.8 -- (--) -- (--) -- -- 0 0 0
01-01-2020 11.4 (14:10) 0 (00:00) 5.7 -- (--) -- (--) -- -- 0 0 0
31-12-2019 -- (--) -- (--) -- -- (--) -- (--) 0 0 0 0 0
30-12-2019 -- (--) -- (--) -- -- (--) -- (--) 0 0 0 0 0
29-12-2019 -- (--) -- (--) -- -- (--) -- (--) -- 0 -- 0 0
28-12-2019 17.6 (15:20) 8.6 (00:00) 13.1 10.28 (04:10) 5.56 (04:10) 0 0 0 0 0
27-12-2019 18.2 (14:10) 2.7 (00:00) 10.5 5 (03:50) 3.06 (03:50) 0 0 0 0 0
26-12-2019 16.8 (00:00) 3.4 (00:00) 10.1 8.61 (00:10) 4.72 (00:50) 0 0 0 0 0
25-12-2019 21.4 (15:10) 8.5 (00:00) 14.9 -- (--) -- (--) 0 0 0 0 0

Gráficas

Temp. máximas Temp. mínimas Temp. medias Precipitaciones Rachas de viento máximas Velocidades máximas media en intervalos de 10 minutos

Datos horarios

Fecha y hora oficial Temperatura (ºC) Velocidad del viento (km/h) Dirección del viento Racha (km/h) Dirección de racha Precipitación (mm) Presión (hPa) Tendencia (hPa) Humedad (%)
2020-01-23 23:00:00 7.4 3 Este 14 Sudeste 0 -- -- 57
2020-01-23 22:00:00 7 4 Este 13 Sudeste 0 -- -- 63
2020-01-23 21:00:00 6.8 6 Sudeste 12 Este 0 -- -- 65
2020-01-23 20:00:00 6.8 5 Sudeste 10 Este 0 -- -- 64
2020-01-23 19:00:00 6.4 2 Sur 6 Sur 0 -- -- 68
2020-01-23 18:00:00 7.5 2 Sudeste 7 Este 0 -- -- 68
2020-01-23 17:00:00 8 3 Sudeste 4 Sudeste 0 -- -- 79
2020-01-23 16:00:00 8.4 3 Noroeste 8 Noroeste 0 -- -- 78
2020-01-23 15:00:00 8.9 0 Calma 8 Noroeste 0 -- -- 70
2020-01-23 14:00:00 8.7 5 Norte 9 Noroeste 0 -- -- 68
2020-01-23 13:00:00 8.7 0 Calma 8 Oeste 0 -- -- 66
2020-01-23 12:00:00 7.7 0 Calma 3 Norte 0 -- -- 74
2020-01-23 11:00:00 6.3 0 Calma 5 Sudeste 0 -- -- 78
2020-01-23 10:00:00 5 0 Calma 5 Nordeste 0 -- -- 79
2020-01-23 09:00:00 5.1 3 Este 12 Sudeste 0 -- -- 75
2020-01-23 08:00:00 4.9 7 Sudeste 12 Sudeste 0 -- -- 76
2020-01-23 07:00:00 3.9 2 Sudeste 6 Sudeste 0 -- -- 84
2020-01-23 06:00:00 3.8 2 Sudeste 8 Sudeste 0 -- -- 86
2020-01-23 05:00:00 4.3 4 Este 9 Este 0 -- -- 86
2020-01-23 04:00:00 4.2 3 Este 6 Nordeste 0 -- -- 87
2020-01-23 03:00:00 4.3 0 Calma 9 Sur 0 -- -- 88
2020-01-23 02:00:00 4.1 3 Sur 5 Sur 0 -- -- 91
2020-01-23 01:00:00 4.3 0 Calma 7 Este 0 -- -- 89
2020-01-23 00:00:00 4 2 Sudeste 7 Sur 0 -- -- 90
2020-01-22 23:00:00 3.1 2 Sudeste 8 Sudeste 0 -- -- 93
2020-01-22 22:00:00 3.5 2 Norte 9 Sur 0 -- -- 90
2020-01-22 21:00:00 3.5 3 Este 12 Sudeste 0 -- -- 95
2020-01-22 20:00:00 3.5 3 Sudoeste 6 Noroeste 0 -- -- 99
2020-01-22 19:00:00 4.1 2 Sur 12 Sur 0 -- -- 97
2020-01-22 18:00:00 4.6 0 Calma 7 Norte 0 -- -- 99
2020-01-22 17:00:00 4.8 5 Noroeste 7 Noroeste 0 -- -- 98
2020-01-22 16:00:00 5.1 3 Noroeste 9 Noroeste 0 -- -- 97
2020-01-22 15:00:00 5.4 6 Noroeste 9 Noroeste 0 -- -- 95
2020-01-22 14:00:00 5.6 3 Noroeste 9 Noroeste 0 -- -- 93
2020-01-22 13:00:00 5.8 5 Noroeste 10 Noroeste 0 -- -- 93
2020-01-22 12:00:00 5.2 0 Calma 7 Oeste 0 -- -- 93
2020-01-22 11:00:00 4.9 2 Norte 7 Norte 0 -- -- 94
2020-01-22 10:00:00 4.8 5 Nordeste 22 Sur 0 -- -- 91
2020-01-22 09:00:00 5 9 Sudoeste 28 Noroeste 0 -- -- 88
2020-01-22 08:00:00 4.9 12 Noroeste 28 Noroeste 0 -- -- 91
2020-01-22 07:00:00 5.2 19 Sudoeste 33 Sur 0 -- -- 88
2020-01-22 06:00:00 4.8 13 Sudeste 37 Este 0 -- -- 88
2020-01-22 05:00:00 5.1 16 Noroeste 41 Norte 0 -- -- 89
2020-01-22 04:00:00 4.9 18 Noroeste 38 Oeste 0.2 -- -- 92
2020-01-22 03:00:00 4.7 12 Noroeste 41 Noroeste 0 -- -- 95
2020-01-22 02:00:00 4.8 14 Noroeste 33 Noroeste 0 -- -- 93
2020-01-22 01:00:00 4.7 18 Noroeste 36 Norte 0 -- -- 93
2020-01-22 00:00:00 4.8 15 Noroeste 45 Noroeste 0 -- -- 90
2020-01-21 23:00:00 4.5 12 Noroeste 41 Noroeste 0 -- -- 89
2020-01-21 22:00:00 4.3 13 Sur 54 Norte 0 -- -- 88
2020-01-21 21:00:00 3.9 13 Este 49 Este 0 -- -- 90
2020-01-21 20:00:00 3.5 12 Sudeste 54 Sudeste 0 -- -- 89
2020-01-21 19:00:00 2.6 13 Este 33 Nordeste 0 -- -- 89
2020-01-21 18:00:00 2.4 8 Sudoeste 21 Oeste 0 -- -- 93
2020-01-21 17:00:00 2.8 10 Noroeste 27 Sudeste 0 -- -- 92
2020-01-21 16:00:00 2.8 11 Nordeste 31 Nordeste 0 -- -- 90
2020-01-21 15:00:00 2.3 8 Noroeste 22 Noroeste 0 -- -- 95
2020-01-21 14:00:00 2.6 -- -- -- -- 0 -- -- 90
2020-01-21 13:00:00 3 10 Norte 35 Nordeste 0.2 -- -- 86
2020-01-21 12:00:00 2.8 10 Nordeste 45 Este 0.6 -- -- 82
2020-01-21 11:00:00 3 17 Este 45 Oeste 0 -- -- 75
2020-01-21 10:00:00 2.8 19 Noroeste 44 Noroeste 0 -- -- 77
2020-01-21 09:00:00 2.6 19 Noroeste 43 Norte 0 -- -- 76
2020-01-21 08:00:00 2.7 18 Noroeste 41 Noroeste 0 -- -- 73
2020-01-21 07:00:00 2.1 19 Noroeste 36 Noroeste 0 -- -- 79
2020-01-21 06:00:00 1.8 17 Noroeste 37 Noroeste 0 -- -- 81
2020-01-21 05:00:00 2.5 11 Noroeste 36 Norte 0 -- -- 70
2020-01-21 04:00:00 2.6 -- -- -- -- 0 -- -- 65
2020-01-21 03:00:00 1.9 12 Noroeste 42 Noroeste 0 -- -- 75
2020-01-21 02:00:00 1.9 19 Noroeste 35 Norte 0.2 -- -- 76
2020-01-21 01:00:00 2.3 17 Noroeste 39 Norte 0 -- -- 73
2020-01-21 00:00:00 2.3 13 Noroeste 40 Noroeste 0.2 -- -- 74
2020-01-20 23:00:00 1.9 21 Noroeste 43 Noroeste 0.2 -- -- 83
2020-01-20 22:00:00 1.4 10 Noroeste 40 Noroeste 0 -- -- 87
2020-01-20 21:00:00 1.3 15 Noroeste 47 Noroeste 0.2 -- -- 84
2020-01-20 20:00:00 0.9 20 Noroeste 47 Noroeste 0 -- -- 87
2020-01-20 19:00:00 0.6 13 Noroeste 31 Norte 0 -- -- 85
2020-01-20 18:00:00 0.8 11 Noroeste 22 Noroeste 0 -- -- 81
2020-01-20 17:00:00 1 12 Noroeste 23 Noroeste 0.2 -- -- 82
2020-01-20 16:00:00 1.4 10 Noroeste 22 Noroeste 0.4 -- -- 77
2020-01-20 15:00:00 1.5 9 Noroeste 18 Noroeste 0.6 -- -- 77
2020-01-20 14:00:00 1.4 9 Noroeste 24 Noroeste 0.4 -- -- 78
2020-01-20 13:00:00 0.9 12 Noroeste 33 Noroeste 0.2 -- -- 78
2020-01-20 12:00:00 0.9 12 Noroeste 35 Noroeste 0.2 -- -- 82
2020-01-20 11:00:00 1 16 Noroeste 36 Noroeste 0 -- -- 73
2020-01-20 10:00:00 0.9 13 Noroeste 32 Noroeste 0 -- -- 70
2020-01-20 09:00:00 -- -- -- -- -- -- -- -- --
2020-01-20 08:00:00 0.8 16 Noroeste 38 Noroeste 0.2 -- -- 75
2020-01-20 07:00:00 0.7 16 Noroeste 31 Noroeste 0 -- -- 82
2020-01-20 06:00:00 1 14 Noroeste 45 Noroeste 0 -- -- 82
2020-01-20 05:00:00 0.8 14 Noroeste 40 Norte 0 -- -- 83
2020-01-20 04:00:00 1.2 19 Noroeste 35 Noroeste 0 -- -- 78
2020-01-20 03:00:00 1.4 16 Noroeste 35 Noroeste 0 -- -- 77
2020-01-20 02:00:00 1.2 16 Noroeste 52 Noroeste 0 -- -- 81
2020-01-20 01:00:00 1.5 23 Noroeste 47 Noroeste 0 -- -- 78
2020-01-20 00:00:00 1.7 21 Noroeste 51 Sudoeste 0 -- -- 77
2020-01-19 23:00:00 2 24 Noroeste 53 Noroeste 0 -- -- 71
2020-01-19 22:00:00 2.5 24 Noroeste 54 Noroeste 0.2 -- -- 72
2020-01-19 21:00:00 2.7 16 Noroeste 39 Oeste 0 -- -- 74
2020-01-19 20:00:00 2.7 12 Noroeste 38 Noroeste 0 -- -- 78
2020-01-19 19:00:00 2.5 16 Noroeste 41 Noroeste 0 -- -- 77
2020-01-19 18:00:00 2.8 13 Noroeste 36 Noroeste 0 -- -- 75
2020-01-19 17:00:00 3.2 11 Noroeste 39 Noroeste 0 -- -- 74
2020-01-19 16:00:00 4.1 12 Noroeste 34 Noroeste 0 -- -- 69
2020-01-19 15:00:00 3.6 20 Noroeste 37 Noroeste 0 -- -- 73
2020-01-19 14:00:00 3.5 14 Noroeste 37 Noroeste 0 -- -- 75
2020-01-19 13:00:00 4 8 Noroeste 31 Noroeste 0 -- -- 77
2020-01-19 12:00:00 3.9 12 Noroeste 46 Noroeste 0 -- -- 77
2020-01-19 11:00:00 3.7 12 Noroeste 32 Noroeste 0 -- -- 80
2020-01-19 10:00:00 3.6 9 Noroeste 30 Noroeste 0 -- -- 82
2020-01-19 09:00:00 3.8 13 Norte 27 Norte 0.2 -- -- 86
2020-01-19 08:00:00 3.9 13 Noroeste 33 Norte 1.6 -- -- 90
2020-01-19 07:00:00 3.9 16 Noroeste 37 Noroeste 3.2 -- -- 91
2020-01-19 06:00:00 3.9 12 Noroeste 22 Noroeste 3.4 -- -- 94
2020-01-19 05:00:00 4.1 10 Noroeste 31 Norte 1.6 -- -- 94
2020-01-19 04:00:00 4.8 11 Noroeste 22 Noroeste 3 -- -- 95
2020-01-19 03:00:00 4.8 6 Noroeste 25 Norte 4 -- -- 97
2020-01-19 02:00:00 4.9 10 Norte 23 Noroeste 3.2 -- -- 98
2020-01-19 01:00:00 4.8 7 Noroeste 17 Noroeste 2 -- -- 98
2020-01-19 00:00:00 4.9 5 Norte 17 Norte 1.2 -- -- 97
2020-01-18 23:00:00 5.3 10 Norte 27 Noroeste 0.8 -- -- 94
2020-01-18 22:00:00 5.1 3 Oeste 20 Oeste 1.4 -- -- 96
2020-01-18 21:00:00 5.1 9 Norte 26 Norte 1.6 -- -- 91
2020-01-18 20:00:00 5.4 4 Norte 12 Noroeste 0 -- -- 89
2020-01-18 19:00:00 5 0 Calma 13 Sudeste 0.6 -- -- 93
2020-01-18 18:00:00 4.9 9 Este 40 Noroeste 6 -- -- 90
2020-01-18 17:00:00 6.3 17 Noroeste 62 Norte 3.4 -- -- 91
2020-01-18 16:00:00 10.8 15 Sudeste 43 Sudeste 0 -- -- 63
2020-01-18 15:00:00 9.9 13 Sur 40 Norte 0 -- -- 70
2020-01-18 14:00:00 11.2 8 Oeste 35 Oeste 0 -- -- 63
2020-01-18 13:00:00 11 18 Sur 49 Sudeste 0 -- -- 61
2020-01-18 12:00:00 9.8 22 Sudeste 40 Sur 0 -- -- 62
2020-01-18 11:00:00 9.3 21 Sudeste 43 Sudeste 0 -- -- 61
2020-01-18 10:00:00 8.7 13 Sudeste 47 Sudeste 0 -- -- 59
2020-01-18 09:00:00 8.2 10 Sur 29 Sur 0 -- -- 56
2020-01-18 08:00:00 8 9 Sur 26 Sur 0 -- -- 58
2020-01-18 07:00:00 7.8 18 Sur 51 Sur 0 -- -- 60
2020-01-18 06:00:00 8.3 5 Sudeste 15 Sudeste 0 -- -- 41
2020-01-18 05:00:00 7.5 7 Sudeste 13 Sur 0 -- -- 49
2020-01-18 04:00:00 6.6 2 Sudoeste 12 Este 0 -- -- 60
2020-01-18 03:00:00 5.5 3 Sudeste 11 Sudoeste 0 -- -- 68
2020-01-18 02:00:00 5.1 2 Noroeste 9 Sudeste 0 -- -- 73
2020-01-18 01:00:00 3.2 0 Calma 4 Sudeste 0 -- -- 88
2020-01-18 00:00:00 3 0 Calma 5 Sudeste 0 -- -- 88
2020-01-17 23:00:00 2.9 0 Calma 8 Sudeste 0 -- -- 87
2020-01-17 22:00:00 4.4 4 Sudeste 9 Sur 0 -- -- 83
2020-01-17 21:00:00 4.6 4 Sudeste 6 Sudeste 0 -- -- 88
2020-01-17 20:00:00 4.9 0 Calma 4 Sudeste 0 -- -- 88
2020-01-17 19:00:00 5.1 2 Norte 9 Norte 0 -- -- 84
2020-01-17 18:00:00 5.4 8 Noroeste 19 Norte 0 -- -- 82
2020-01-17 17:00:00 5.8 3 Norte 22 Noroeste 0 -- -- 77
2020-01-17 16:00:00 6.4 9 Norte 21 Norte 0 -- -- 76
2020-01-17 15:00:00 7.5 10 Noroeste 21 Norte 0 -- -- 71
2020-01-17 14:00:00 6.1 9 Norte 18 Norte 0 -- -- 78
2020-01-17 13:00:00 5.5 5 Norte 27 Noroeste 0 -- -- 85
2020-01-17 12:00:00 5.2 13 Norte 28 Noroeste 0.4 -- -- 88
2020-01-17 11:00:00 5.2 3 Noroeste 17 Norte 0 -- -- 90
2020-01-17 10:00:00 4.3 3 Este 9 Noroeste 3 -- -- 92
2020-01-17 09:00:00 4.7 9 Norte 25 Norte 2.4 -- -- 91
2020-01-17 08:00:00 4.9 2 Norte 32 Norte 1.8 -- -- 94
2020-01-17 07:00:00 5.7 6 Norte 27 Noroeste 1.2 -- -- 92
2020-01-17 06:00:00 8.3 13 Noroeste 31 Sudeste 0 -- -- 71
2020-01-17 05:00:00 9 11 Sudeste 31 Sur 0 -- -- 71
2020-01-17 04:00:00 9.6 8 Este 33 Sudeste 0 -- -- 65
2020-01-17 03:00:00 9.8 12 Sudeste 45 Sudeste 0 -- -- 62
2020-01-17 02:00:00 9.6 16 Sudeste 47 Este 0 -- -- 66
2020-01-17 01:00:00 9.9 20 Sudeste 65 Sur 0 -- -- 64
2020-01-17 00:00:00 10.1 13 Sudeste 60 Sudeste 0 -- -- 67
2020-01-16 23:00:00 10 21 Sudeste 61 Sudeste 0 -- -- 66
2020-01-16 22:00:00 10.5 22 Sudeste 78 Sur 0 -- -- 59
2020-01-16 21:00:00 10.7 -- -- -- -- -- -- -- --
2020-01-16 20:00:00 11.7 29 Sudeste 62 Este 0 -- -- 44
2020-01-16 19:00:00 11.8 15 Sur 60 Sudeste 0 -- -- 44
2020-01-16 18:00:00 12.1 32 Sudeste 64 Sudeste 0 -- -- 47
2020-01-16 17:00:00 12.8 18 Sudeste 58 Sur 0 -- -- 48
2020-01-16 16:00:00 13.4 33 Sur 86 Sudeste 0 -- -- 49
2020-01-16 15:00:00 13.3 34 Sudeste 71 Sudeste 0 -- -- 50
2020-01-16 14:00:00 12.4 30 Sudeste 68 Sudeste 0 -- -- 62
2020-01-16 13:00:00 12.3 31 Sudeste 70 Sudeste 0 -- -- 66
2020-01-16 12:00:00 12.2 29 Sudeste 70 Sudeste 0 -- -- 66
2020-01-16 11:00:00 11.9 30 Sudeste 71 Sudeste 0 -- -- 66
2020-01-16 10:00:00 11.5 31 Sudeste 65 Sudeste 0 -- -- 69
2020-01-16 09:00:00 11.8 24 Sudeste 56 Sudeste 0 -- -- 67
2020-01-16 08:00:00 11.5 23 Sudeste 55 Sudeste 0 -- -- 69
2020-01-16 07:00:00 12.4 19 Sudeste 55 Sudeste 0 -- -- 65
2020-01-16 06:00:00 11.9 19 Sudeste 56 Sudeste 0 -- -- 69
2020-01-16 05:00:00 11.9 18 Sudeste 47 Sudeste 0 -- -- 71
2020-01-16 04:00:00 12 31 Sudeste 60 Sudeste 0 -- -- 70
2020-01-16 03:00:00 12 20 Sudeste 43 Sudeste 0 -- -- 69
2020-01-16 02:00:00 12.2 23 Sudeste 55 Sudeste 0 -- -- 65
2020-01-16 01:00:00 12 12 Sur 46 Sur 0 -- -- 62
2020-01-16 00:00:00 11.4 13 Sudeste 42 Sur 0 -- -- 61
2020-01-15 23:00:00 11.3 17 Sur 41 Sur 0 -- -- 58
2020-01-15 22:00:00 10.8 8 Sur 50 Sudeste 0 -- -- 56
2020-01-15 21:00:00 10.8 10 Sur 36 Sudeste 0 -- -- 59
2020-01-15 20:00:00 10.7 14 Sudeste 39 Sudeste 0 -- -- 57
2020-01-15 19:00:00 10.4 10 Sudeste 35 Sudeste 0 -- -- 61
2020-01-15 18:00:00 10.7 15 Sudeste 32 Sur 0 -- -- 63
2020-01-15 17:00:00 10.7 7 Sudeste 37 Sudeste 0 -- -- 64
2020-01-15 16:00:00 11.8 18 Sudeste 36 Sudeste 0 -- -- 60
2020-01-15 15:00:00 11.4 11 Sudeste 35 Sur 0 -- -- 65
2020-01-15 14:00:00 11.5 7 Sur 27 Nordeste 0 -- -- 63
2020-01-15 13:00:00 11 8 Sudeste 34 Sur 0 -- -- 66
2020-01-15 12:00:00 9.9 22 Sudeste 56 Sur 0 -- -- 72
2020-01-15 11:00:00 9.8 15 Sudeste 53 Sudeste 0 -- -- 73
2020-01-15 10:00:00 10.2 18 Sur 55 Sudeste 0 -- -- 69
2020-01-15 09:00:00 9.8 27 Sudeste 68 Sudeste 0 -- -- 70
2020-01-15 08:00:00 9.5 27 Sudeste 58 Sudeste 0 -- -- 71
2020-01-15 07:00:00 9.4 19 Sudeste 51 Este 0 -- -- 72
2020-01-15 06:00:00 10 28 Este 82 Sudeste 0 -- -- 69
2020-01-15 05:00:00 9.8 26 Sudeste 69 Sudeste 0 -- -- 70
2020-01-15 04:00:00 9.9 25 Sudeste 71 Sudeste 0 -- -- 70
2020-01-15 03:00:00 10.7 32 Sudeste 75 Sudeste 0 -- -- 64
2020-01-15 02:00:00 9.1 28 Sudeste 64 Sudeste 0 -- -- 74
2020-01-15 01:00:00 9 -- -- -- -- -- -- -- --
2020-01-15 00:00:00 9.9 28 Sudeste 61 Sudeste 0 -- -- 65
2020-01-14 23:00:00 9.1 27 Sudeste 57 Sur 0 -- -- 66
2020-01-14 22:00:00 9.5 19 Sur 44 Sudeste 0 -- -- 61
2020-01-14 21:00:00 9.5 18 Sudeste 76 Sudeste 0 -- -- 63
2020-01-14 20:00:00 9.5 33 Sudeste 59 Sudeste 0 -- -- 60
2020-01-14 19:00:00 9.7 21 Sur 54 Sudeste 0 -- -- 56
2020-01-14 18:00:00 9.4 21 Sudeste 50 Sudeste 0 -- -- 60
2020-01-14 17:00:00 9.8 20 Sur 58 Sur 0 -- -- 61
2020-01-14 16:00:00 9.2 21 Sur 49 Sur 0 -- -- 61
2020-01-14 15:00:00 10.5 23 Sudeste 55 Sudeste 0 -- -- 54
2020-01-14 14:00:00 10.6 21 Sur 57 Sur 0 -- -- 52
2020-01-14 13:00:00 8.5 33 Sur 57 Sur 0 -- -- 61
2020-01-14 12:00:00 -- -- -- -- -- -- -- -- --
2020-01-14 11:00:00 -- -- -- -- -- -- -- -- --
2020-01-14 10:00:00 -- -- -- -- -- -- -- -- --
2020-01-14 09:00:00 -- -- -- -- -- -- -- -- --
2020-01-14 08:00:00 10.2 18 Sudeste 44 Sudeste 0 -- -- 54
2020-01-14 07:00:00 10.6 20 Sudeste 45 Sudeste 0 -- -- 54
2020-01-14 06:00:00 10.6 15 Sur 35 Sudeste 0 -- -- 54
2020-01-14 05:00:00 11 -- -- -- -- -- -- -- --
2020-01-14 04:00:00 10.3 18 Sudeste 40 Sudeste 0 -- -- 47
2020-01-14 03:00:00 8.9 10 Sur 41 Sudeste 0 -- -- 53
2020-01-14 02:00:00 9.1 14 Sur 49 Sudeste 0 -- -- 50
2020-01-14 01:00:00 9.8 18 Sur 41 Sur 0 -- -- 47
2020-01-14 00:00:00 10 14 Sur 36 Sudoeste 0 -- -- 44
2020-01-13 23:00:00 9.4 20 Sur 38 Sur 0 -- -- 44
2020-01-13 22:00:00 9.1 13 Sur 31 Sur 0 -- -- 41
2020-01-13 21:00:00 9.9 18 Sur 39 Sur 0 -- -- 33
2020-01-13 20:00:00 10.2 14 Sur 36 Sur 0 -- -- 28
2020-01-13 19:00:00 11.3 9 Sudeste 26 Sur 0 -- -- 24
2020-01-13 18:00:00 11.3 3 Sur 32 Sudeste 0 -- -- 23
2020-01-13 17:00:00 12.3 12 Sudeste 39 Este 0 -- -- 20
2020-01-13 16:00:00 12.9 18 Sudeste 49 Sudeste 0 -- -- 20
2020-01-13 15:00:00 14.5 9 Sudeste 38 Sudeste 0 -- -- 18
2020-01-13 14:00:00 14.1 7 Este 30 Sudeste 0 -- -- 20
2020-01-13 13:00:00 12.4 7 Sur 21 Sur 0 -- -- 22
2020-01-13 12:00:00 11.1 11 Sur 21 Sur 0 -- -- 27
2020-01-13 11:00:00 9.2 3 Noroeste 19 Sudoeste 0 -- -- 43
2020-01-13 10:00:00 9.1 4 Sudeste 15 Sudeste 0 -- -- 32
2020-01-13 09:00:00 8.5 6 Sudeste 18 Sur 0 -- -- 43
2020-01-13 08:00:00 8 8 Sudeste 15 Sudeste 0 -- -- 67
2020-01-13 07:00:00 8.2 7 Sudeste 15 Sudeste 0 -- -- 63
2020-01-13 06:00:00 8.7 8 Sudeste 17 Sudeste 0 -- -- 62
2020-01-13 05:00:00 8 8 Sur 14 Sudeste 0 -- -- 52
2020-01-13 04:00:00 7.2 7 Sur 11 Sudeste 0 -- -- 48
2020-01-13 03:00:00 5 0 Calma 14 Sudeste 0 -- -- 56
2020-01-13 02:00:00 5 5 Sudeste 13 Sudeste 0 -- -- 67
2020-01-13 01:00:00 5.5 4 Sudeste 14 Sudeste 0 -- -- 67
2020-01-13 00:00:00 5.3 3 Sudeste 6 Sur 0 -- -- 72
2020-01-12 23:00:00 5.7 3 Sudeste 10 Sudeste 0 -- -- 74
2020-01-12 22:00:00 6.4 6 Sudeste 14 Sur 0 -- -- 74
2020-01-12 21:00:00 6.5 9 Sudeste 15 Sudeste 0 -- -- 73
2020-01-12 20:00:00 6.3 10 Sudeste 16 Sudeste 0 -- -- 73
2020-01-12 19:00:00 6 2 Sur 11 Sudeste 0 -- -- 77
2020-01-12 18:00:00 7.5 9 Sudeste 15 Sudeste 0 -- -- 74
2020-01-12 17:00:00 8.1 7 Sur 12 Sur 0 -- -- 73
2020-01-12 16:00:00 12.7 3 Noroeste 10 Oeste 0 -- -- 58
2020-01-12 15:00:00 12.5 5 Noroeste 10 Noroeste 0 -- -- 52
2020-01-12 14:00:00 12.2 4 Oeste 8 Noroeste 0 -- -- 60
2020-01-12 13:00:00 11.6 0 Calma 5 Sur 0 -- -- 54
2020-01-12 12:00:00 -- -- -- -- -- -- -- -- --
2020-01-12 11:00:00 -- -- -- -- -- -- -- -- --
2020-01-12 10:00:00 -- -- -- -- -- -- -- -- --
2020-01-12 09:00:00 -- -- -- -- -- -- -- -- --
2020-01-12 08:00:00 6.1 10 Sudeste 15 Sudeste 0 -- -- 43
2020-01-12 07:00:00 6.4 8 Sudeste 17 Sudeste 0 -- -- 45
2020-01-12 06:00:00 4.9 3 Sur 11 Sudeste 0 -- -- 44
2020-01-12 05:00:00 -- -- -- -- -- -- -- -- --
2020-01-12 04:00:00 5 5 Sudeste 14 Sudeste 0 -- -- 48
2020-01-12 03:00:00 4 4 Sudeste 12 Sudeste 0 -- -- 54
2020-01-12 02:00:00 3.9 3 Sudeste 9 Sur 0 -- -- 56
2020-01-12 01:00:00 4.2 4 Sudeste 13 Sur 0 -- -- 64
2020-01-12 00:00:00 4.2 8 Sur 15 Sur 0 -- -- 60
2020-01-11 23:00:00 3.7 4 Sudeste 12 Sudeste 0 -- -- 59
2020-01-11 22:00:00 4.3 5 Sudeste 12 Sur 0 -- -- 57
2020-01-11 21:00:00 4.9 7 Sudeste 13 Sudeste 0 -- -- 61
2020-01-11 20:00:00 5.1 5 Sudeste 13 Sudeste 0 -- -- 51
2020-01-11 19:00:00 5.4 2 Sudeste 12 Sudeste 0 -- -- 59
2020-01-11 18:00:00 7.1 8 Sudeste 13 Sudeste 0 -- -- 52
2020-01-11 17:00:00 8.4 5 Sur 12 Sudeste 0 -- -- 57
2020-01-11 16:00:00 11.7 5 Sur 9 Sur 0 -- -- 50
2020-01-11 15:00:00 11.4 3 Noroeste 6 Oeste 0 -- -- 39
2020-01-11 14:00:00 10.1 2 Noroeste 9 Noroeste 0 -- -- 54
2020-01-11 13:00:00 10.3 0 Calma 5 Sudeste 0 -- -- 46
2020-01-11 12:00:00 7.3 2 Sudeste 6 Sudeste 0 -- -- 55
2020-01-11 11:00:00 2.4 0 Calma 8 Este 0 -- -- 76
2020-01-11 10:00:00 2.1 3 Sudeste 6 Sur 0 -- -- 77
2020-01-11 09:00:00 1.8 4 Sudeste 9 Sudeste 0 -- -- 80
2020-01-11 08:00:00 1.6 0 Calma 6 Este 0 -- -- 84
2020-01-11 07:00:00 1.8 4 Sudeste 9 Sudeste 0 -- -- 84
2020-01-11 06:00:00 1.8 2 Sudeste 8 Sudeste 0 -- -- 86
2020-01-11 05:00:00 1.8 3 Sudeste 7 Sudeste 0 -- -- 88
2020-01-11 04:00:00 1.5 0 Calma 5 Sur 0 -- -- 89
2020-01-11 03:00:00 1.8 3 Sudeste 7 Sudeste 0 -- -- 88
2020-01-11 02:00:00 1.8 3 Sur 12 Sudeste 0 -- -- 90
2020-01-11 01:00:00 2.4 3 Sudeste 9 Sur 0 -- -- 91
2020-01-11 00:00:00 2.2 0 Calma 10 Sudeste 0 -- -- 93
2020-01-10 23:00:00 2.3 2 Sudeste 9 Sudeste 0 -- -- 92
2020-01-10 22:00:00 2.2 0 Calma 8 Sur 0 -- -- 92
2020-01-10 21:00:00 2.7 2 Sudeste 9 Este 0 -- -- 92
2020-01-10 20:00:00 4.3 4 Sudeste 8 Sudeste 0.4 -- -- 97
2020-01-10 19:00:00 4.6 0 Calma 3 Noroeste 0.8 -- -- 98
2020-01-10 18:00:00 4.9 4 Noroeste 13 Noroeste 2 -- -- 95
2020-01-10 17:00:00 5.4 0 Calma 18 Oeste 1.2 -- -- 96
2020-01-10 16:00:00 6.1 6 Noroeste 13 Oeste 0 -- -- 92
2020-01-10 15:00:00 4.9 7 Noroeste 15 Oeste 1.4 -- -- 98
2020-01-10 14:00:00 4.6 2 Sudeste 18 Noroeste 3.6 -- -- 95
2020-01-10 13:00:00 4.7 13 Noroeste 30 Noroeste 3.2 -- -- 94
2020-01-10 12:00:00 4.9 12 Noroeste 22 Norte 0.2 -- -- 97
2020-01-10 11:00:00 4.7 8 Noroeste 17 Noroeste 0 -- -- 97
2020-01-10 10:00:00 4.5 9 Norte 24 Noroeste 0.2 -- -- 94
2020-01-10 09:00:00 3.9 5 Noroeste 27 Noroeste 0.4 -- -- 97
2020-01-10 08:00:00 4.1 13 Noroeste 24 Noroeste 1 -- -- 95
2020-01-10 07:00:00 4 11 Norte 30 Norte 0.4 -- -- 93
2020-01-10 06:00:00 4 13 Norte 39 Noroeste 0 -- -- 92
2020-01-10 05:00:00 4.2 12 Noroeste 44 Norte 0.4 -- -- 93
2020-01-10 04:00:00 4.4 16 Norte 33 Norte 0.2 -- -- 91
2020-01-10 03:00:00 4.6 17 Noroeste 37 Norte 0.2 -- -- 89
2020-01-10 02:00:00 5.4 15 Noroeste 29 Noroeste 0 -- -- 84
2020-01-10 01:00:00 5.4 9 Norte 30 Oeste 0 -- -- 87
2020-01-10 00:00:00 6 9 Norte 25 Norte 0 -- -- 74
2020-01-09 23:00:00 6.1 11 Norte 28 Norte 0 -- -- 75
2020-01-09 22:00:00 6.3 6 Norte 24 Noroeste 0 -- -- 84
2020-01-09 21:00:00 6.6 6 Norte 12 Nordeste 0.8 -- -- 90
2020-01-09 20:00:00 6.2 2 Sudeste 13 Norte 2.4 -- -- 94
2020-01-09 19:00:00 6.3 8 Norte 24 Noroeste 0.6 -- -- 93
2020-01-09 18:00:00 6.7 14 Norte 30 Norte 0.4 -- -- 92
2020-01-09 17:00:00 6.6 6 Norte 36 Noroeste 3.8 -- -- 95
2020-01-09 16:00:00 8.9 30 Noroeste 47 Noroeste 0 -- -- 89
2020-01-09 15:00:00 15.6 10 Sudoeste 30 Sudeste 0 -- -- 51
2020-01-09 14:00:00 15.9 17 Sur 30 Sudoeste 0 -- -- 48
2020-01-09 13:00:00 16 7 Sudeste 30 Sudoeste 0 -- -- 51
2020-01-09 12:00:00 14 15 Sudeste 34 Sudeste 0 -- -- 55
2020-01-09 11:00:00 12.4 15 Sudeste 27 Sur 0 -- -- 65
2020-01-09 10:00:00 11.5 9 Sudeste 17 Sudeste 0 -- -- 62
2020-01-09 09:00:00 10.5 9 Sudeste 18 Sudeste 0 -- -- 56
2020-01-09 08:00:00 9 8 Sudeste 15 Sudeste 0 -- -- 55
2020-01-09 07:00:00 9.5 7 Sudeste 14 Sudeste 0 -- -- 50
2020-01-09 06:00:00 10.2 2 Sudeste 12 Este 0 -- -- 50
2020-01-09 05:00:00 11.2 6 Este 14 Sudeste 0 -- -- 43
2020-01-09 04:00:00 11.8 6 Sudeste 17 Sudeste 0 -- -- 49
2020-01-09 03:00:00 10.5 5 Sudeste 12 Este 0 -- -- 62
2020-01-09 02:00:00 10.9 4 Sudeste 19 Este 0 -- -- 60
2020-01-09 01:00:00 11.5 8 Sudeste 14 Sudeste 0 -- -- 58
2020-01-09 00:00:00 9.6 5 Sudeste 11 Sudeste 0 -- -- 75
2020-01-08 23:00:00 9.9 0 Calma 10 Sudeste 0 -- -- 74
2020-01-08 22:00:00 10.8 4 Sudeste 9 Este 0 -- -- 72
2020-01-08 21:00:00 10.2 0 Calma 10 Sur 0 -- -- 73
2020-01-08 20:00:00 10 5 Sudeste 11 Sudeste 0 -- -- 71
2020-01-08 19:00:00 9.8 0 Calma 7 Este 0 -- -- 70
2020-01-08 18:00:00 10.2 2 Sudeste 11 Sudeste 0 -- -- 67
2020-01-08 17:00:00 10.7 6 Sur 10 Sur 0 -- -- 61
2020-01-08 16:00:00 15.2 3 Oeste 8 Oeste 0 -- -- 49
2020-01-08 15:00:00 14.8 6 Noroeste 12 Noroeste 0 -- -- 44
2020-01-08 14:00:00 15 4 Oeste 10 Norte 0 -- -- 37
2020-01-08 13:00:00 14.6 3 Noroeste 6 Sur 0 -- -- 39
2020-01-08 12:00:00 12.8 4 Noroeste 5 Noroeste 0 -- -- 39
2020-01-08 11:00:00 11 0 Calma 4 Sur 0 -- -- 60
2020-01-08 10:00:00 9.5 0 Calma 6 Sudeste 0 -- -- 57
2020-01-08 09:00:00 9.2 0 Calma 12 Sudeste 0 -- -- 51
2020-01-08 08:00:00 9.1 6 Sudeste 13 Sur 0 -- -- 45
2020-01-08 07:00:00 8.6 3 Sudeste 9 Sur 0 -- -- 45
2020-01-08 06:00:00 8.6 2 Sur 11 Sur 0 -- -- 47
2020-01-08 05:00:00 9.1 6 Sur 14 Sur 0 -- -- 39
2020-01-08 04:00:00 8.1 5 Sudeste 8 Sur 0 -- -- 40
2020-01-08 03:00:00 8.8 4 Sudeste 11 Sudeste 0 -- -- 36
2020-01-08 02:00:00 9 5 Sudeste 13 Sudeste 0 -- -- 41
2020-01-08 01:00:00 8.5 7 Sur 13 Sur 0 -- -- 62
2020-01-08 00:00:00 8.6 5 Sudeste 12 Sudeste 0 -- -- 69
2020-01-07 23:00:00 8.7 4 Sudeste 11 Sudeste 0 -- -- 69
2020-01-07 22:00:00 8.4 2 Sudeste 7 Sur 0 -- -- 70
2020-01-07 21:00:00 9.4 5 Sudeste 14 Sudeste 0 -- -- 70
2020-01-07 20:00:00 9.6 9 Sudeste 15 Sudeste 0 -- -- 64
2020-01-07 19:00:00 8.6 2 Sudeste 9 Sur 0 -- -- 75
2020-01-07 18:00:00 9.3 3 Sudeste 9 Sudeste 0 -- -- 77
2020-01-07 17:00:00 11.2 0 Calma 5 Sur 0 -- -- 71
2020-01-07 16:00:00 15.1 0 Calma 6 Noroeste 0 -- -- 57
2020-01-07 15:00:00 15.2 3 Noroeste 9 Noroeste 0 -- -- 59
2020-01-07 14:00:00 14.8 0 Calma 10 Oeste 0 -- -- 57
2020-01-07 13:00:00 14.9 2 Sur 7 Sudeste 0 -- -- 53
2020-01-07 12:00:00 13.2 4 Sur 8 Sudeste 0 -- -- 58
2020-01-07 11:00:00 10 0 Calma 6 Sur 0 -- -- 70
2020-01-07 10:00:00 9.5 4 Sudeste 11 Sudeste 0 -- -- 72
2020-01-07 09:00:00 8.3 2 Sudeste 12 Sudeste 0 -- -- 73
2020-01-07 08:00:00 8 3 Sudeste 10 Sur 0 -- -- 78
2020-01-07 07:00:00 7.2 2 Sudeste 6 Sudeste 0 -- -- 82
2020-01-07 06:00:00 6.8 2 Sudeste 15 Sudeste 0 -- -- 80
2020-01-07 05:00:00 7.6 0 Calma 14 Sur 0 -- -- 77
2020-01-07 04:00:00 7.5 5 Sudeste 14 Sur 0 -- -- 77
2020-01-07 03:00:00 6.3 4 Sudeste 14 Sudeste 0 -- -- 71
2020-01-07 02:00:00 6.1 3 Sudeste 14 Sudeste 0 -- -- 67
2020-01-07 01:00:00 5 3 Sudeste 12 Sudeste 0 -- -- 65
2020-01-07 00:00:00 5.3 4 Sudeste 12 Sudeste 0 -- -- 61
2020-01-06 23:00:00 4.7 2 Sudeste 15 Sudeste 0 -- -- 59
2020-01-06 22:00:00 3.2 5 Sudeste 10 Sudeste 0 -- -- 85
2020-01-06 21:00:00 4 8 Este 15 Sudeste 0 -- -- 89
2020-01-06 20:00:00 4.6 4 Nordeste 22 Noroeste 0 -- -- 91
2020-01-06 19:00:00 5.7 4 Sudeste 19 Sudeste 0 -- -- 64
2020-01-06 18:00:00 6.4 7 Sudeste 11 Sudeste 0 -- -- 93
2020-01-06 17:00:00 7.5 0 Calma 12 Noroeste 0 -- -- 87
2020-01-06 16:00:00 9.3 3 Oeste 13 Noroeste 0 -- -- 76
2020-01-06 15:00:00 10.3 5 Noroeste 18 Norte 0 -- -- 68
2020-01-06 14:00:00 11.6 9 Noroeste 14 Noroeste 0 -- -- 61
2020-01-06 13:00:00 11.1 9 Noroeste 12 Noroeste 0 -- -- 56
2020-01-06 12:00:00 12.5 5 Sur 11 Sudeste 0 -- -- 37
2020-01-06 11:00:00 7.4 6 Sudeste 13 Sudeste 0 -- -- 48
2020-01-06 10:00:00 6.4 6 Sur 15 Sudeste 0 -- -- 51